createdAt,value
2023-02-19T00:00:04.791Z,68.15
2023-02-19T00:01:27.236Z,68.72
2023-02-19T00:02:30.147Z,68.42
2023-02-19T00:03:33.320Z,68.16
2023-02-19T00:04:36.286Z,68.08
2023-02-19T00:05:39.183Z,68.19
2023-02-19T00:06:43.049Z,68.26
2023-02-19T00:07:45.846Z,68.14
2023-02-19T00:08:49.302Z,68.11
2023-02-19T00:09:52.186Z,67.93
2023-02-19T00:10:59.788Z,67.99
2023-02-19T00:12:02.705Z,68.10
2023-02-19T00:13:05.659Z,68.08
2023-02-19T00:14:10.382Z,68.10
2023-02-19T00:15:13.373Z,68.18
2023-02-19T00:16:37.953Z,68.21
2023-02-19T00:17:40.914Z,68.50
2023-02-19T00:18:44.704Z,68.53
2023-02-19T00:19:47.768Z,68.57
2023-02-19T00:20:50.697Z,68.62
2023-02-19T00:21:53.966Z,68.35
2023-02-19T00:22:57.140Z,68.69
2023-02-19T00:24:02.913Z,68.44
2023-02-19T00:25:06.182Z,68.30
2023-02-19T00:26:18.615Z,68.34
2023-02-19T00:27:21.844Z,68.49
2023-02-19T00:28:24.761Z,68.50
2023-02-19T00:29:27.682Z,68.34
2023-02-19T00:30:30.805Z,68.29
2023-02-19T00:31:35.869Z,68.37
2023-02-19T00:32:38.916Z,68.53
2023-02-19T00:33:49.353Z,68.52
2023-02-19T00:34:52.288Z,68.67
2023-02-19T00:35:55.168Z,68.45
2023-02-19T00:36:58.047Z,68.44
2023-02-19T00:38:01.253Z,68.57
2023-02-19T00:39:06.238Z,68.39
2023-02-19T00:40:09.634Z,68.52
2023-02-19T00:41:20.626Z,68.44
2023-02-19T00:42:23.581Z,68.58
2023-02-19T00:43:26.580Z,68.46
2023-02-19T00:44:29.506Z,68.46
2023-02-19T00:45:34.577Z,68.68
2023-02-19T00:46:44.774Z,68.62
2023-02-19T00:47:47.848Z,68.85
2023-02-19T00:48:50.934Z,68.78
2023-02-19T00:49:53.910Z,68.56
2023-02-19T00:50:57.045Z,68.42
2023-02-19T00:52:00.024Z,68.38
2023-02-19T00:53:02.929Z,68.44
2023-02-19T00:54:06.558Z,68.39
2023-02-19T00:55:09.890Z,68.62
2023-02-19T00:56:13.593Z,68.71
2023-02-19T00:57:16.838Z,68.38
2023-02-19T00:58:19.730Z,68.90
2023-02-19T00:59:22.637Z,68.64
2023-02-19T01:00:25.598Z,68.39
2023-02-19T01:01:28.513Z,68.39
2023-02-19T01:02:31.595Z,68.52
2023-02-19T01:03:35.715Z,68.37
2023-02-19T01:04:38.990Z,68.42
2023-02-19T01:05:43.428Z,68.45
2023-02-19T01:06:46.334Z,68.52
2023-02-19T01:07:49.244Z,68.81
2023-02-19T01:08:52.242Z,68.44
2023-02-19T01:09:55.116Z,68.35
2023-02-19T01:10:59.335Z,68.42
2023-02-19T01:12:02.330Z,68.31
2023-02-19T01:13:05.619Z,68.45
2023-02-19T01:14:09.921Z,68.31
2023-02-19T01:17:13.974Z,68.42
2023-02-19T01:18:51.288Z,70.00
2023-02-19T01:19:54.495Z,69.23
2023-02-19T01:20:57.455Z,68.71
2023-02-19T01:22:00.564Z,68.51
2023-02-19T01:23:04.998Z,68.28
2023-02-19T01:24:08.237Z,68.03
2023-02-19T01:25:11.114Z,68.27
2023-02-19T01:26:21.129Z,68.09
2023-02-19T01:27:24.132Z,67.90
2023-02-19T01:28:27.242Z,68.02
2023-02-19T01:29:30.416Z,68.07
2023-02-19T01:30:37.763Z,68.11
2023-02-19T01:31:42.456Z,67.90
2023-02-19T01:32:45.776Z,67.88
2023-02-19T01:33:51.936Z,67.90
2023-02-19T01:34:54.812Z,67.62
2023-02-19T01:35:57.727Z,67.76
2023-02-19T01:37:00.871Z,67.81
2023-02-19T01:38:03.728Z,67.69
2023-02-19T01:39:06.890Z,67.56
2023-02-19T01:40:10.059Z,67.73
2023-02-19T01:41:21.363Z,67.84
2023-02-19T01:42:24.237Z,67.74
2023-02-19T01:43:27.558Z,68.02
2023-02-19T01:44:30.537Z,67.63
2023-02-19T01:45:44.109Z,67.60
2023-02-19T01:46:48.494Z,67.73
2023-02-19T01:48:01.676Z,67.73
2023-02-19T01:49:15.670Z,67.57
2023-02-19T01:50:18.909Z,67.64
2023-02-19T01:51:22.547Z,67.70
2023-02-19T01:52:32.696Z,67.54
2023-02-19T01:53:42.252Z,67.49
2023-02-19T01:54:46.374Z,67.34
2023-02-19T01:55:53.113Z,67.23
2023-02-19T01:56:57.658Z,67.23
2023-02-19T01:58:02.690Z,67.33
2023-02-19T01:59:07.450Z,67.21
2023-02-19T02:00:14.530Z,67.26
2023-02-19T02:01:17.559Z,67.20
2023-02-19T02:02:21.684Z,67.16
2023-02-19T02:03:26.173Z,67.17
2023-02-19T02:04:31.679Z,67.28
2023-02-19T02:05:37.721Z,67.29
2023-02-19T02:06:52.325Z,67.30
2023-02-19T02:08:14.374Z,67.09
2023-02-19T02:09:39.056Z,67.11
2023-02-19T02:10:43.209Z,67.72
2023-02-19T02:11:50.031Z,67.21
2023-02-19T02:12:58.995Z,67.43
2023-02-19T02:14:03.880Z,67.24
2023-02-19T02:15:07.741Z,67.16
2023-02-19T02:16:17.903Z,67.27
2023-02-19T02:17:26.964Z,67.14
2023-02-19T02:18:45.063Z,67.16
2023-02-19T02:20:07.022Z,67.02
2023-02-19T02:21:54.427Z,67.57
2023-02-19T02:23:15.039Z,67.41
2023-02-19T02:24:37.127Z,67.23
2023-02-19T02:26:17.279Z,67.61
2023-02-19T02:27:32.146Z,68.48
2023-02-19T02:29:13.482Z,67.27
2023-02-19T02:31:45.468Z,67.98
2023-02-19T02:33:09.035Z,67.17
2023-02-19T02:34:19.075Z,67.76
2023-02-19T02:35:26.766Z,67.42
2023-02-19T02:36:41.770Z,67.61
2023-02-19T02:37:47.034Z,67.74
2023-02-19T02:38:52.960Z,67.83
2023-02-19T02:39:58.339Z,67.76
2023-02-19T02:41:02.964Z,67.68
2023-02-19T02:42:24.982Z,67.60
2023-02-19T02:43:33.434Z,68.17
2023-02-19T02:44:37.491Z,67.77
2023-02-19T02:45:41.191Z,67.65
2023-02-19T02:46:47.991Z,68.12
2023-02-19T02:47:54.115Z,68.01
2023-02-19T02:49:03.564Z,67.88
2023-02-19T02:50:37.409Z,67.85
2023-02-19T02:51:50.774Z,68.40
2023-02-19T02:53:21.593Z,68.24
2023-02-19T02:54:48.056Z,68.17
2023-02-19T02:55:54.516Z,68.53
2023-02-19T02:56:59.228Z,68.49
2023-02-19T02:58:04.215Z,68.32
2023-02-19T02:59:09.982Z,68.28
2023-02-19T03:00:15.117Z,68.15
2023-02-19T03:01:47.449Z,68.09
2023-02-19T03:02:50.557Z,68.05
2023-02-19T03:04:02.940Z,68.10
2023-02-19T03:05:27.927Z,68.03
2023-02-19T03:06:34.607Z,68.31
2023-02-19T03:07:44.056Z,68.25
2023-02-19T03:08:52.847Z,68.20
2023-02-19T03:09:58.405Z,68.39
2023-02-19T03:11:24.184Z,68.52
2023-02-19T03:12:48.295Z,68.48
2023-02-19T03:14:16.067Z,68.66
2023-02-19T03:15:38.439Z,69.08
2023-02-19T03:17:04.812Z,68.78
2023-02-19T03:18:29.866Z,68.61
2023-02-19T03:19:37.944Z,68.64
2023-02-19T03:20:45.773Z,68.59
2023-02-19T03:22:10.249Z,68.61
2023-02-19T03:23:16.108Z,68.53
2023-02-19T03:24:42.550Z,68.57
2023-02-19T03:26:05.635Z,69.08
2023-02-19T03:27:18.697Z,69.27
2023-02-19T03:28:46.831Z,68.83
2023-02-19T03:29:52.762Z,68.93
2023-02-19T03:30:56.002Z,68.69
2023-02-19T03:32:04.432Z,68.59
2023-02-19T03:33:14.978Z,68.47
2023-02-19T03:34:26.263Z,68.79
2023-02-19T03:35:37.662Z,68.69
2023-02-19T03:36:45.855Z,68.59
2023-02-19T03:38:05.028Z,68.79
2023-02-19T03:39:10.715Z,68.62
2023-02-19T03:40:14.416Z,68.59
2023-02-19T03:41:27.427Z,68.84
2023-02-19T03:42:38.520Z,68.80
2023-02-19T03:43:52.622Z,68.80
2023-02-19T03:45:14.943Z,68.91
2023-02-19T03:46:36.507Z,69.08
2023-02-19T03:48:12.118Z,68.86
2023-02-19T03:49:42.119Z,68.94
2023-02-19T03:50:55.283Z,69.20
2023-02-19T03:52:11.286Z,68.86
2023-02-19T03:53:26.567Z,69.02
2023-02-19T03:54:36.363Z,68.79
2023-02-19T03:55:54.694Z,68.80
2023-02-19T03:57:32.428Z,69.07
2023-02-19T03:58:50.173Z,68.89
2023-02-19T04:00:02.063Z,69.47
2023-02-19T04:01:22.666Z,69.24
2023-02-19T04:02:39.644Z,69.01
2023-02-19T04:03:52.495Z,69.10
2023-02-19T04:05:05.994Z,69.13
2023-02-19T04:06:15.508Z,69.26
2023-02-19T04:07:18.765Z,69.26
2023-02-19T04:08:24.420Z,69.19
2023-02-19T04:09:41.584Z,69.30
2023-02-19T04:10:47.401Z,69.76
2023-02-19T04:11:52.405Z,69.36
2023-02-19T04:13:01.725Z,69.19
2023-02-19T04:14:13.174Z,69.46
2023-02-19T04:15:21.951Z,69.46
2023-02-19T04:16:28.864Z,69.33
2023-02-19T04:17:37.698Z,69.62
2023-02-19T04:18:45.204Z,69.44
2023-02-19T04:19:50.904Z,69.32
2023-02-19T04:20:53.719Z,69.67
2023-02-19T04:21:58.236Z,69.57
2023-02-19T04:23:01.220Z,69.64
2023-02-19T04:24:09.541Z,69.65
2023-02-19T04:25:12.448Z,69.76
2023-02-19T04:26:17.184Z,69.65
2023-02-19T04:27:20.232Z,69.62
2023-02-19T04:28:23.304Z,69.59
2023-02-19T04:29:26.124Z,69.62
2023-02-19T04:30:29.398Z,69.62
2023-02-19T04:31:35.508Z,69.96
2023-02-19T04:32:38.513Z,69.95
2023-02-19T04:33:41.329Z,69.82
2023-02-19T04:34:44.185Z,69.93
2023-02-19T04:35:47.229Z,69.71
2023-02-19T04:36:50.132Z,69.60
2023-02-19T04:37:52.976Z,69.58
2023-02-19T04:38:55.895Z,69.74
2023-02-19T04:39:58.732Z,69.56
2023-02-19T04:41:01.992Z,69.58
2023-02-19T04:42:05.211Z,69.77
2023-02-19T04:43:08.374Z,69.74
2023-02-19T04:44:11.279Z,69.89
2023-02-19T04:45:14.145Z,69.74
2023-02-19T04:46:17.275Z,69.56
2023-02-19T04:47:20.388Z,69.63
2023-02-19T04:48:23.581Z,69.54
2023-02-19T04:49:26.513Z,69.53
2023-02-19T04:50:29.473Z,69.73
2023-02-19T04:51:32.532Z,69.55
2023-02-19T04:52:35.675Z,69.81
2023-02-19T04:53:38.687Z,69.58
2023-02-19T04:54:41.607Z,69.50
2023-02-19T04:55:44.458Z,69.65
2023-02-19T04:56:47.396Z,69.62
2023-02-19T04:57:50.326Z,69.59
2023-02-19T04:58:53.318Z,69.76
2023-02-19T04:59:56.218Z,69.64
2023-02-19T05:00:59.028Z,69.67
2023-02-19T05:02:02.105Z,69.62
2023-02-19T05:03:05.444Z,69.82
2023-02-19T05:04:08.711Z,69.64
2023-02-19T05:05:11.570Z,69.63
2023-02-19T05:06:14.706Z,69.76
2023-02-19T05:07:17.743Z,69.71
2023-02-19T05:08:20.622Z,69.66
2023-02-19T05:09:23.649Z,69.62
2023-02-19T05:10:26.562Z,69.53
2023-02-19T05:11:29.357Z,69.69
2023-02-19T05:12:32.432Z,69.59
2023-02-19T05:13:35.421Z,69.85
2023-02-19T05:14:38.398Z,69.88
2023-02-19T05:15:41.313Z,69.66
2023-02-19T05:16:44.320Z,69.60
2023-02-19T05:17:47.404Z,69.66
2023-02-19T05:18:50.296Z,69.59
2023-02-19T05:19:53.357Z,69.67
2023-02-19T05:20:57.672Z,69.86
2023-02-19T05:22:00.646Z,69.70
2023-02-19T05:23:03.843Z,69.67
2023-02-19T05:24:07.182Z,69.60
2023-02-19T05:25:10.143Z,69.95
2023-02-19T05:26:18.866Z,69.87
2023-02-19T05:27:21.749Z,69.69
2023-02-19T05:28:29.161Z,69.79
2023-02-19T05:29:32.498Z,69.77
2023-02-19T05:30:35.709Z,69.78
2023-02-19T05:31:38.824Z,69.73
2023-02-19T05:32:41.716Z,69.91
2023-02-19T05:33:45.923Z,70.03
2023-02-19T05:34:48.852Z,69.78
2023-02-19T05:35:54.439Z,69.72
2023-02-19T05:36:57.333Z,69.91
2023-02-19T05:38:00.275Z,69.76
2023-02-19T05:39:03.810Z,69.92
2023-02-19T05:40:06.719Z,69.86
2023-02-19T05:41:20.859Z,69.86
2023-02-19T05:42:23.881Z,70.17
2023-02-19T05:43:26.907Z,70.10
2023-02-19T05:44:29.957Z,70.12
2023-02-19T05:45:33.846Z,69.92
2023-02-19T05:46:37.124Z,69.87
2023-02-19T05:47:40.239Z,69.97
2023-02-19T05:48:43.364Z,69.87
2023-02-19T05:49:46.332Z,70.07
2023-02-19T05:50:49.324Z,70.00
2023-02-19T05:51:52.331Z,70.04
2023-02-19T05:52:55.361Z,70.07
2023-02-19T05:53:58.513Z,70.04
2023-02-19T05:55:01.450Z,69.87
2023-02-19T05:56:05.229Z,69.82
2023-02-19T05:57:08.261Z,69.93
2023-02-19T05:58:11.219Z,69.84
2023-02-19T05:59:20.957Z,70.11
2023-02-19T06:00:27.077Z,69.98
2023-02-19T06:01:30.699Z,70.01
2023-02-19T06:02:33.654Z,70.26
2023-02-19T06:03:36.686Z,70.25
2023-02-19T06:04:39.549Z,69.98
2023-02-19T06:05:42.671Z,69.93
2023-02-19T06:06:46.881Z,69.95
2023-02-19T06:07:52.744Z,70.00
2023-02-19T06:08:55.598Z,69.92
2023-02-19T06:09:58.451Z,69.85
2023-02-19T06:11:01.461Z,69.99
2023-02-19T06:12:04.524Z,70.01
2023-02-19T06:13:09.179Z,69.93
2023-02-19T06:14:15.023Z,70.01
2023-02-19T06:15:17.930Z,70.09
2023-02-19T06:16:22.118Z,69.99
2023-02-19T06:17:25.117Z,70.08
2023-02-19T06:18:28.033Z,70.16
2023-02-19T06:19:30.914Z,70.05
2023-02-19T06:20:34.758Z,70.15
2023-02-19T06:21:37.741Z,70.07
2023-02-19T06:22:40.593Z,70.04
2023-02-19T06:23:44.308Z,70.00
2023-02-19T06:24:47.706Z,69.97
2023-02-19T06:25:50.513Z,70.01
2023-02-19T06:26:53.399Z,70.02
2023-02-19T06:27:56.273Z,70.07
2023-02-19T06:28:59.278Z,70.00
2023-02-19T06:30:02.277Z,70.07
2023-02-19T06:31:06.111Z,70.15
2023-02-19T06:32:09.066Z,70.13
2023-02-19T06:33:12.065Z,70.02
2023-02-19T06:34:15.051Z,70.06
2023-02-19T06:35:17.940Z,70.12
2023-02-19T06:36:22.072Z,70.20
2023-02-19T06:37:25.045Z,70.31
2023-02-19T06:38:28.612Z,70.22
2023-02-19T06:39:31.642Z,70.40
2023-02-19T06:40:34.838Z,70.39
2023-02-19T06:41:37.793Z,70.33
2023-02-19T06:42:40.669Z,70.19
2023-02-19T06:43:43.683Z,70.17
2023-02-19T06:44:46.496Z,70.26
2023-02-19T06:45:49.387Z,70.12
2023-02-19T06:46:55.500Z,70.27
2023-02-19T06:47:58.444Z,70.12
2023-02-19T06:49:03.542Z,70.10
2023-02-19T06:50:06.560Z,70.00
2023-02-19T06:51:13.264Z,69.99
2023-02-19T06:52:16.054Z,70.07
2023-02-19T06:53:18.950Z,70.07
2023-02-19T06:54:21.975Z,70.08
2023-02-19T06:55:24.892Z,70.01
2023-02-19T06:56:37.549Z,69.79
2023-02-19T06:57:40.395Z,69.94
2023-02-19T06:58:43.258Z,69.87
2023-02-19T06:59:46.762Z,69.88
2023-02-19T07:00:49.917Z,69.82
2023-02-19T07:01:52.847Z,69.58
2023-02-19T07:02:56.690Z,69.51
2023-02-19T07:04:00.091Z,69.56
2023-02-19T07:05:03.043Z,69.38
2023-02-19T07:06:06.253Z,69.38
2023-02-19T07:07:11.997Z,69.36
2023-02-19T07:08:17.204Z,69.53
2023-02-19T07:09:20.213Z,69.36
2023-02-19T07:10:23.092Z,69.36
2023-02-19T07:11:26.896Z,69.27
2023-02-19T07:12:30.004Z,69.23
2023-02-19T07:13:33.137Z,69.14
2023-02-19T07:14:36.010Z,69.15
2023-02-19T07:15:38.862Z,69.23
2023-02-19T07:16:42.341Z,69.06
2023-02-19T07:17:45.214Z,69.06
2023-02-19T07:18:48.121Z,69.15
2023-02-19T07:19:50.964Z,68.99
2023-02-19T07:20:53.882Z,68.89
2023-02-19T07:21:56.714Z,68.74
2023-02-19T07:22:59.589Z,68.84
2023-02-19T07:24:02.444Z,68.62
2023-02-19T07:25:05.531Z,68.81
2023-02-19T07:26:13.123Z,68.34
2023-02-19T07:27:15.862Z,68.13
2023-02-19T07:28:18.701Z,68.32
2023-02-19T07:29:21.544Z,68.42
2023-02-19T07:30:24.472Z,68.31
2023-02-19T07:31:28.525Z,68.30
2023-02-19T07:32:31.577Z,68.22
2023-02-19T07:33:34.574Z,68.13
2023-02-19T07:34:37.439Z,68.15
2023-02-19T07:35:46.815Z,68.09
2023-02-19T07:36:49.647Z,68.18
2023-02-19T07:37:52.504Z,67.85
2023-02-19T07:38:56.816Z,67.90
2023-02-19T07:40:03.225Z,67.89
2023-02-19T07:41:07.116Z,67.69
2023-02-19T07:42:10.016Z,67.82
2023-02-19T07:43:13.957Z,67.84
2023-02-19T07:44:17.234Z,67.76
2023-02-19T07:45:20.797Z,67.85
2023-02-19T07:46:24.156Z,67.34
2023-02-19T07:47:27.054Z,67.61
2023-02-19T07:48:30.062Z,67.68
2023-02-19T07:49:33.267Z,67.53
2023-02-19T07:50:36.142Z,67.52
2023-02-19T07:51:40.027Z,67.46
2023-02-19T07:52:43.063Z,66.88
2023-02-19T07:53:47.233Z,67.07
2023-02-19T07:54:50.277Z,67.34
2023-02-19T07:56:00.808Z,67.13
2023-02-19T07:57:03.797Z,67.05
2023-02-19T07:58:06.844Z,66.94
2023-02-19T07:59:10.713Z,67.09
2023-02-19T08:00:14.040Z,67.10
2023-02-19T08:01:19.487Z,66.95
2023-02-19T08:02:47.556Z,67.00
2023-02-19T08:03:53.718Z,66.98
2023-02-19T08:04:56.670Z,66.64
2023-02-19T08:05:59.582Z,66.85
2023-02-19T08:07:02.558Z,66.87
2023-02-19T08:08:07.318Z,66.89
2023-02-19T08:09:10.632Z,66.84
2023-02-19T08:10:32.212Z,66.51
2023-02-19T08:11:53.644Z,66.60
2023-02-19T08:13:16.979Z,66.66
2023-02-19T08:14:20.259Z,66.58
2023-02-19T08:15:23.172Z,66.12
2023-02-19T08:16:42.007Z,66.15
2023-02-19T08:17:45.923Z,66.26
2023-02-19T08:18:49.254Z,65.53
2023-02-19T08:19:52.104Z,65.44
2023-02-19T08:20:56.462Z,65.38
2023-02-19T08:21:59.472Z,64.74
2023-02-19T08:23:02.625Z,65.17
2023-02-19T08:24:05.862Z,65.31
2023-02-19T08:25:08.935Z,65.19
2023-02-19T08:26:12.074Z,65.22
2023-02-19T08:27:14.929Z,64.99
2023-02-19T08:28:18.686Z,65.16
2023-02-19T08:29:21.631Z,65.24
2023-02-19T08:30:24.700Z,65.25
2023-02-19T08:31:28.177Z,65.00
2023-02-19T08:32:31.982Z,65.21
2023-02-19T08:33:41.191Z,65.05
2023-02-19T08:34:50.352Z,64.91
2023-02-19T08:35:53.312Z,65.04
2023-02-19T08:36:58.970Z,64.68
2023-02-19T08:38:02.141Z,64.64
2023-02-19T08:39:04.948Z,64.70
2023-02-19T08:40:08.260Z,64.47
2023-02-19T08:41:13.811Z,64.27
2023-02-19T08:42:16.902Z,64.40
2023-02-19T08:43:19.684Z,64.39
2023-02-19T08:44:22.545Z,64.20
2023-02-19T08:45:25.385Z,64.10
2023-02-19T08:46:28.312Z,63.62
2023-02-19T08:47:31.710Z,63.48
2023-02-19T08:48:34.527Z,62.76
2023-02-19T08:49:37.522Z,62.87
2023-02-19T08:50:40.411Z,61.89
2023-02-19T08:51:43.287Z,61.74
2023-02-19T08:52:46.367Z,62.05
2023-02-19T08:53:49.245Z,62.32
2023-02-19T08:54:52.072Z,62.49
2023-02-19T08:55:55.239Z,62.45
2023-02-19T08:56:58.631Z,62.21
2023-02-19T08:58:01.460Z,62.20
2023-02-19T08:59:04.278Z,61.94
2023-02-19T09:00:08.994Z,62.17
2023-02-19T09:01:18.390Z,61.94
2023-02-19T09:02:21.809Z,62.05
2023-02-19T09:03:24.890Z,61.66
2023-02-19T09:04:28.184Z,61.99
2023-02-19T09:05:31.350Z,61.98
2023-02-19T09:06:34.373Z,61.41
2023-02-19T09:07:37.318Z,61.43
2023-02-19T09:08:40.484Z,61.31
2023-02-19T09:09:43.865Z,61.30
2023-02-19T09:10:57.558Z,61.23
2023-02-19T09:12:00.561Z,60.46
2023-02-19T09:13:03.577Z,60.58
2023-02-19T09:14:07.806Z,59.95
2023-02-19T09:15:12.411Z,60.20
2023-02-19T09:16:15.434Z,58.98
2023-02-19T09:17:18.778Z,59.43
2023-02-19T09:18:21.692Z,59.85
2023-02-19T09:19:25.047Z,59.79
2023-02-19T09:20:28.321Z,59.49
2023-02-19T09:21:31.315Z,60.65
2023-02-19T09:22:35.374Z,60.99
2023-02-19T09:23:38.523Z,60.30
2023-02-19T09:24:43.375Z,61.08
2023-02-19T09:25:46.412Z,62.08
2023-02-19T09:26:50.912Z,62.33
2023-02-19T09:27:57.398Z,61.99
2023-02-19T09:29:00.338Z,61.98
2023-02-19T09:30:04.125Z,61.70
2023-02-19T09:31:11.483Z,61.31
2023-02-19T09:32:14.628Z,60.27
2023-02-19T09:33:17.499Z,58.79
2023-02-19T09:34:20.479Z,57.19
2023-02-19T09:35:23.429Z,56.47
2023-02-19T09:36:26.504Z,57.21
2023-02-19T09:37:29.699Z,57.17
2023-02-19T09:38:32.990Z,57.71
2023-02-19T09:39:36.134Z,57.89
2023-02-19T09:40:39.614Z,58.19
2023-02-19T09:41:53.593Z,58.73
2023-02-19T09:42:56.865Z,58.66
2023-02-19T09:44:03.360Z,59.05
2023-02-19T09:45:06.644Z,59.44
2023-02-19T09:46:24.174Z,59.60
2023-02-19T09:47:30.395Z,59.78
2023-02-19T09:48:33.273Z,59.63
2023-02-19T09:49:39.657Z,59.71
2023-02-19T09:50:47.296Z,59.61
2023-02-19T09:52:18.465Z,59.55
2023-02-19T09:53:27.290Z,59.28
2023-02-19T09:54:32.032Z,58.73
2023-02-19T09:55:39.100Z,59.47
2023-02-19T09:56:41.929Z,59.84
2023-02-19T09:57:46.517Z,59.16
2023-02-19T09:58:53.044Z,59.79
2023-02-19T10:00:13.687Z,59.09
2023-02-19T10:01:16.970Z,59.55
2023-02-19T10:02:23.117Z,59.68
2023-02-19T10:03:41.429Z,57.84
2023-02-19T10:04:46.186Z,57.84
2023-02-19T10:05:49.462Z,57.26
2023-02-19T10:06:52.827Z,53.60
2023-02-19T10:07:56.629Z,54.62
2023-02-19T10:09:13.734Z,54.96
2023-02-19T10:10:16.528Z,55.72
2023-02-19T10:11:19.857Z,55.76
2023-02-19T10:12:31.792Z,55.48
2023-02-19T10:13:37.512Z,54.80
2023-02-19T10:14:45.258Z,54.96
2023-02-19T10:15:51.773Z,54.91
2023-02-19T10:17:05.047Z,53.74
2023-02-19T10:18:11.022Z,52.56
2023-02-19T10:19:15.584Z,53.51
2023-02-19T10:20:24.539Z,53.70
2023-02-19T10:21:28.151Z,52.73
2023-02-19T10:22:34.828Z,52.79
2023-02-19T10:23:40.973Z,53.11
2023-02-19T10:24:45.898Z,53.32
2023-02-19T10:25:57.196Z,52.89
2023-02-19T10:27:00.839Z,52.34
2023-02-19T10:28:04.783Z,51.86
2023-02-19T10:29:09.650Z,50.70
2023-02-19T10:30:21.230Z,51.81
2023-02-19T10:31:26.152Z,52.80
2023-02-19T10:32:29.833Z,53.22
2023-02-19T10:33:32.838Z,53.47
2023-02-19T10:34:35.818Z,53.91
2023-02-19T10:36:00.325Z,53.53
2023-02-19T10:37:03.464Z,53.37
2023-02-19T10:38:09.866Z,53.12
2023-02-19T10:39:21.623Z,50.79
2023-02-19T10:40:28.681Z,51.65
2023-02-19T10:41:31.831Z,52.09
2023-02-19T10:42:34.627Z,52.27
2023-02-19T10:43:42.133Z,50.52
2023-02-19T10:44:49.265Z,49.83
2023-02-19T10:45:53.007Z,50.10
2023-02-19T10:46:59.533Z,49.82
2023-02-19T10:48:03.338Z,48.94
2023-02-19T10:49:17.742Z,49.46
2023-02-19T10:50:32.037Z,49.37
2023-02-19T10:51:38.293Z,50.10
2023-02-19T10:52:42.392Z,50.15
2023-02-19T10:53:48.689Z,50.32
2023-02-19T10:55:14.169Z,50.48
2023-02-19T10:56:30.044Z,50.23
2023-02-19T10:57:34.542Z,50.35
2023-02-19T10:58:40.153Z,50.54
2023-02-19T10:59:57.670Z,50.76
2023-02-19T11:01:14.308Z,50.11
2023-02-19T11:02:19.149Z,49.18
2023-02-19T11:03:24.098Z,48.94
2023-02-19T11:04:38.001Z,47.91
2023-02-19T11:05:51.865Z,48.48
2023-02-19T11:06:54.969Z,49.13
2023-02-19T11:07:58.340Z,49.25
2023-02-19T11:09:01.394Z,48.68
2023-02-19T11:10:07.071Z,49.14
2023-02-19T11:11:30.350Z,47.57
2023-02-19T11:12:34.796Z,48.15
2023-02-19T11:13:39.783Z,48.42
2023-02-19T11:14:44.755Z,48.72
2023-02-19T11:15:53.128Z,48.75
2023-02-19T11:16:58.471Z,48.66
2023-02-19T11:18:13.495Z,47.49
2023-02-19T11:19:41.735Z,46.13
2023-02-19T11:21:00.986Z,46.83
2023-02-19T11:22:34.324Z,44.62
2023-02-19T11:23:47.140Z,45.01
2023-02-19T11:24:54.534Z,45.11
2023-02-19T11:26:06.531Z,45.48
2023-02-19T11:27:18.836Z,44.67
2023-02-19T11:28:34.975Z,43.56
2023-02-19T11:29:38.280Z,42.64
2023-02-19T11:30:43.136Z,43.08
2023-02-19T11:31:46.507Z,43.50
2023-02-19T11:32:49.484Z,43.41
2023-02-19T11:33:57.081Z,42.87
2023-02-19T11:35:19.008Z,43.12
2023-02-19T11:36:30.445Z,42.41
2023-02-19T11:37:33.708Z,43.39
2023-02-19T11:38:36.655Z,44.09
2023-02-19T11:39:44.994Z,44.41
2023-02-19T11:41:00.494Z,44.73
2023-02-19T11:42:29.528Z,45.30
2023-02-19T11:44:20.585Z,45.74
2023-02-19T11:45:42.597Z,46.52
2023-02-19T11:46:54.329Z,46.06
2023-02-19T11:48:31.968Z,45.62
2023-02-19T11:49:46.935Z,45.57
2023-02-19T11:51:05.086Z,45.47
2023-02-19T11:52:22.081Z,45.14
2023-02-19T11:53:32.111Z,45.34
2023-02-19T11:54:49.293Z,45.51
2023-02-19T11:56:07.557Z,45.01
2023-02-19T11:57:35.695Z,44.13
2023-02-19T11:59:01.623Z,43.62
2023-02-19T12:00:33.493Z,43.69
2023-02-19T12:01:57.159Z,44.27
2023-02-19T12:03:06.652Z,44.41
2023-02-19T12:04:30.726Z,45.38
2023-02-19T12:05:56.057Z,44.81
2023-02-19T12:07:22.198Z,45.04
2023-02-19T12:08:50.160Z,44.24
2023-02-19T12:10:11.699Z,44.44
2023-02-19T12:12:04.346Z,44.58
2023-02-19T12:13:19.621Z,44.77
2023-02-19T12:14:48.713Z,44.77
2023-02-19T12:15:51.675Z,45.57
2023-02-19T12:17:06.336Z,45.06
2023-02-19T12:18:27.569Z,45.43
2023-02-19T12:19:36.050Z,45.65
2023-02-19T12:21:01.245Z,45.79
2023-02-19T12:22:46.322Z,45.64
2023-02-19T12:24:16.617Z,46.39
2023-02-19T12:25:46.470Z,47.09
2023-02-19T12:27:09.674Z,48.15
2023-02-19T12:28:54.870Z,48.31
2023-02-19T12:30:17.363Z,47.34
2023-02-19T12:31:33.064Z,46.88
2023-02-19T12:33:09.415Z,46.28
2023-02-19T12:34:15.720Z,45.31
2023-02-19T12:35:18.605Z,45.28
2023-02-19T12:36:30.336Z,44.41
2023-02-19T12:38:04.936Z,43.86
2023-02-19T12:39:18.897Z,43.34
2023-02-19T12:40:27.835Z,43.14
2023-02-19T12:41:47.553Z,42.32
2023-02-19T12:43:16.031Z,41.95
2023-02-19T12:44:34.833Z,42.46
2023-02-19T12:45:40.432Z,42.80
2023-02-19T12:46:49.740Z,43.40
2023-02-19T12:48:08.189Z,43.44
2023-02-19T12:49:13.639Z,43.52
2023-02-19T12:50:21.894Z,44.11
2023-02-19T12:51:39.293Z,43.38
2023-02-19T12:52:48.330Z,43.31
2023-02-19T12:53:57.259Z,43.09
2023-02-19T12:55:12.859Z,43.77
2023-02-19T12:56:41.631Z,44.11
2023-02-19T12:57:45.187Z,41.54
2023-02-19T12:58:56.734Z,40.53
2023-02-19T13:00:22.226Z,40.61
2023-02-19T13:01:36.076Z,36.71
2023-02-19T13:02:42.072Z,37.23
2023-02-19T13:04:00.582Z,37.06
2023-02-19T13:05:22.940Z,36.39
2023-02-19T13:06:35.045Z,33.74
2023-02-19T13:07:57.712Z,33.86
2023-02-19T13:09:07.562Z,34.15
2023-02-19T13:10:27.355Z,32.75
2023-02-19T13:11:40.218Z,33.21
2023-02-19T13:12:45.224Z,32.87
2023-02-19T13:13:55.743Z,34.40
2023-02-19T13:15:03.970Z,31.23
2023-02-19T13:16:13.435Z,30.77
2023-02-19T13:17:17.092Z,32.45
2023-02-19T13:18:24.649Z,32.46
2023-02-19T13:19:28.300Z,32.29
2023-02-19T13:20:34.905Z,31.52
2023-02-19T13:21:57.065Z,33.74
2023-02-19T13:23:35.143Z,31.10
2023-02-19T13:24:42.262Z,31.02
2023-02-19T13:26:04.530Z,30.46
2023-02-19T13:27:23.027Z,32.15
2023-02-19T13:28:50.577Z,29.85
2023-02-19T13:30:05.031Z,30.43
2023-02-19T13:31:20.011Z,29.36
2023-02-19T13:33:11.068Z,29.31
2023-02-19T13:34:42.763Z,30.87
2023-02-19T13:35:54.118Z,30.10
2023-02-19T13:36:58.760Z,29.67
2023-02-19T13:39:16.975Z,30.54
2023-02-19T13:40:22.847Z,30.11
2023-02-19T13:41:31.809Z,30.01
2023-02-19T13:42:36.516Z,29.59
2023-02-19T13:43:42.518Z,28.69
2023-02-19T13:44:48.543Z,26.72
2023-02-19T13:46:00.316Z,27.65
2023-02-19T13:47:06.208Z,27.09
2023-02-19T13:48:23.929Z,27.04
2023-02-19T13:49:34.033Z,27.38
2023-02-19T13:50:37.137Z,27.92
2023-02-19T13:51:52.999Z,28.12
2023-02-19T13:53:01.241Z,27.86
2023-02-19T13:54:19.851Z,29.39
2023-02-19T14:24:01.789Z,27.36
2023-02-19T14:25:21.016Z,27.73
2023-02-19T14:26:26.522Z,28.59
2023-02-19T14:27:29.469Z,28.37
2023-02-19T14:28:36.514Z,27.75
2023-02-19T14:29:40.731Z,28.43
2023-02-19T14:30:55.214Z,28.43
2023-02-19T14:31:58.394Z,26.80
2023-02-19T14:33:10.601Z,27.60
2023-02-19T14:34:26.900Z,27.57
2023-02-19T14:35:53.914Z,28.47
2023-02-19T14:37:01.292Z,29.31
2023-02-19T14:38:06.528Z,28.38
2023-02-19T14:39:26.178Z,28.21
2023-02-19T14:40:38.358Z,29.12
2023-02-19T14:41:45.640Z,29.63
2023-02-19T14:42:51.424Z,29.76
2023-02-19T14:43:59.400Z,30.45
2023-02-19T14:45:07.110Z,30.62
2023-02-19T14:46:22.708Z,31.14
2023-02-19T14:47:28.642Z,33.03
2023-02-19T14:48:39.780Z,31.66
2023-02-19T14:49:53.191Z,32.60
2023-02-19T14:51:03.121Z,31.70
2023-02-19T14:52:14.266Z,31.55
2023-02-19T14:53:19.214Z,31.95
2023-02-19T14:54:32.226Z,31.94
2023-02-19T14:55:40.016Z,32.72
2023-02-19T14:56:47.306Z,33.19
2023-02-19T14:57:53.228Z,33.48
2023-02-19T14:59:25.168Z,33.93
2023-02-19T15:00:33.723Z,34.45
2023-02-19T15:01:36.953Z,34.88
2023-02-19T15:02:43.209Z,35.56
2023-02-19T15:03:49.296Z,35.89
2023-02-19T15:04:53.159Z,36.00
2023-02-19T15:06:00.956Z,36.49
2023-02-19T15:07:09.946Z,36.83
2023-02-19T15:08:18.653Z,37.36
2023-02-19T15:09:21.977Z,38.06
2023-02-19T15:10:28.422Z,37.88
2023-02-19T15:11:32.877Z,38.47
2023-02-19T15:12:40.934Z,38.98